Terminal Aerodrome Forecast
Issued by NWS Twin Cities, MN

Home | Current Version | Previous Version | Graphics & Text | Print | Product List | Glossary On
Versions: 1 2 3 4 5 6 7 8 9 10 11 12 13 14 15 16
000
FTUS43 KMPX 201700
TAFSTC
TAF
KSTC 201727Z 2018/2118 34010KT P6SM FEW040
     FM210000 VRB03KT P6SM SKC
     FM211000 10005KT P6SM SKC
     FM211400 13010KT P6SM SKC=

USA.gov is the U.S. government's official web portal to all federal, state and local government web resources and services.